sensor_id;sensor_type;location;lat;lon;timestamp;temperature;humidity
79494;SHT31;68951;53.130;18.104;2023-04-07T00:01:36;5.17;67.93
79494;SHT31;68951;53.130;18.104;2023-04-07T00:04:03;5.15;68.02
79494;SHT31;68951;53.130;18.104;2023-04-07T00:06:29;5.12;68.13
79494;SHT31;68951;53.130;18.104;2023-04-07T00:08:56;5.18;68.24
79494;SHT31;68951;53.130;18.104;2023-04-07T00:11:23;5.18;68.33
79494;SHT31;68951;53.130;18.104;2023-04-07T00:13:50;5.15;68.46
79494;SHT31;68951;53.130;18.104;2023-04-07T00:16:17;5.16;68.52
79494;SHT31;68951;53.130;18.104;2023-04-07T00:18:44;5.20;68.60
79494;SHT31;68951;53.130;18.104;2023-04-07T00:21:11;5.24;68.70
79494;SHT31;68951;53.130;18.104;2023-04-07T00:23:38;5.28;68.76
79494;SHT31;68951;53.130;18.104;2023-04-07T00:26:05;5.32;68.80
79494;SHT31;68951;53.130;18.104;2023-04-07T00:28:32;5.31;68.80
79494;SHT31;68951;53.130;18.104;2023-04-07T00:30:58;5.32;68.87
79494;SHT31;68951;53.130;18.104;2023-04-07T00:33:25;5.35;68.91
79494;SHT31;68951;53.130;18.104;2023-04-07T00:35:52;5.36;69.00
79494;SHT31;68951;53.130;18.104;2023-04-07T00:38:19;5.30;69.00
79494;SHT31;68951;53.130;18.104;2023-04-07T00:40:46;5.26;69.08
79494;SHT31;68951;53.130;18.104;2023-04-07T00:43:13;5.30;69.17
79494;SHT31;68951;53.130;18.104;2023-04-07T00:45:40;5.33;69.21
79494;SHT31;68951;53.130;18.104;2023-04-07T00:48:07;5.38;69.29
79494;SHT31;68951;53.130;18.104;2023-04-07T00:50:35;5.40;69.30
79494;SHT31;68951;53.130;18.104;2023-04-07T00:53:03;5.42;69.32
79494;SHT31;68951;53.130;18.104;2023-04-07T00:55:31;5.39;69.40
79494;SHT31;68951;53.130;18.104;2023-04-07T00:57:57;5.39;69.44
79494;SHT31;68951;53.130;18.104;2023-04-07T01:00:25;5.41;69.49
79494;SHT31;68951;53.130;18.104;2023-04-07T01:02:57;5.40;69.50
79494;SHT31;68951;53.130;18.104;2023-04-07T01:05:52;5.36;69.58
79494;SHT31;68951;53.130;18.104;2023-04-07T01:08:37;5.41;69.67
79494;SHT31;68951;53.130;18.104;2023-04-07T01:11:20;5.48;69.70
79494;SHT31;68951;53.130;18.104;2023-04-07T01:14:06;5.53;69.74
79494;SHT31;68951;53.130;18.104;2023-04-07T01:16:41;5.56;69.76
79494;SHT31;68951;53.130;18.104;2023-04-07T01:22:27;5.56;69.80
79494;SHT31;68951;53.130;18.104;2023-04-07T01:30:38;5.58;69.90
79494;SHT31;68951;53.130;18.104;2023-04-07T01:33:07;5.58;69.91
79494;SHT31;68951;53.130;18.104;2023-04-07T01:35:37;5.55;69.94
79494;SHT31;68951;53.130;18.104;2023-04-07T01:38:06;5.52;70.00
79494;SHT31;68951;53.130;18.104;2023-04-07T01:40:34;5.53;70.06
79494;SHT31;68951;53.130;18.104;2023-04-07T01:43:03;5.60;70.11
79494;SHT31;68951;53.130;18.104;2023-04-07T01:45:33;5.65;70.10
79494;SHT31;68951;53.130;18.104;2023-04-07T01:48:03;5.72;70.15
79494;SHT31;68951;53.130;18.104;2023-04-07T01:50:32;5.75;70.13
79494;SHT31;68951;53.130;18.104;2023-04-07T01:53:00;5.71;70.18
79494;SHT31;68951;53.130;18.104;2023-04-07T01:55:29;5.71;70.20
79494;SHT31;68951;53.130;18.104;2023-04-07T01:57:57;5.70;70.27
79494;SHT31;68951;53.130;18.104;2023-04-07T02:00:24;5.69;70.29
79494;SHT31;68951;53.130;18.104;2023-04-07T02:02:53;5.65;70.30
79494;SHT31;68951;53.130;18.104;2023-04-07T02:05:24;5.62;70.31
79494;SHT31;68951;53.130;18.104;2023-04-07T02:07:57;5.64;70.40
79494;SHT31;68951;53.130;18.104;2023-04-07T02:10:29;5.67;70.44
79494;SHT31;68951;53.130;18.104;2023-04-07T02:13:02;5.74;70.50
79494;SHT31;68951;53.130;18.104;2023-04-07T02:15:34;5.77;70.50
79494;SHT31;68951;53.130;18.104;2023-04-07T02:18:02;5.81;70.50
79494;SHT31;68951;53.130;18.104;2023-04-07T02:20:33;5.81;70.50
79494;SHT31;68951;53.130;18.104;2023-04-07T02:23:02;5.84;70.51
79494;SHT31;68951;53.130;18.104;2023-04-07T02:25:30;5.85;70.56
79494;SHT31;68951;53.130;18.104;2023-04-07T02:27:58;5.88;70.60
79494;SHT31;68951;53.130;18.104;2023-04-07T02:30:27;5.92;70.55
79494;SHT31;68951;53.130;18.104;2023-04-07T02:32:54;5.88;70.54
79494;SHT31;68951;53.130;18.104;2023-04-07T02:35:21;5.85;70.60
79494;SHT31;68951;53.130;18.104;2023-04-07T02:37:48;5.88;70.60
79494;SHT31;68951;53.130;18.104;2023-04-07T02:40:15;5.91;70.60
79494;SHT31;68951;53.130;18.104;2023-04-07T02:42:42;5.96;70.61
79494;SHT31;68951;53.130;18.104;2023-04-07T02:45:09;5.98;70.60
79494;SHT31;68951;53.130;18.104;2023-04-07T02:47:37;5.98;70.65
79494;SHT31;68951;53.130;18.104;2023-04-07T02:50:05;5.98;70.68
79494;SHT31;68951;53.130;18.104;2023-04-07T02:52:32;5.98;70.70
79494;SHT31;68951;53.130;18.104;2023-04-07T02:54:59;5.95;70.70
79494;SHT31;68951;53.130;18.104;2023-04-07T02:57:27;5.92;70.72
79494;SHT31;68951;53.130;18.104;2023-04-07T02:59:53;5.96;70.80
79494;SHT31;68951;53.130;18.104;2023-04-07T03:02:22;6.01;70.80
79494;SHT31;68951;53.130;18.104;2023-04-07T03:04:50;6.03;70.80
79494;SHT31;68951;53.130;18.104;2023-04-07T03:07:18;6.07;70.80
79494;SHT31;68951;53.130;18.104;2023-04-07T03:09:45;6.15;70.86
79494;SHT31;68951;53.130;18.104;2023-04-07T03:12:12;6.17;70.84
79494;SHT31;68951;53.130;18.104;2023-04-07T03:14:39;6.15;70.87
79494;SHT31;68951;53.130;18.104;2023-04-07T03:17:06;6.12;70.89
79494;SHT31;68951;53.130;18.104;2023-04-07T03:19:33;6.09;70.91
79494;SHT31;68951;53.130;18.104;2023-04-07T03:22:00;6.13;70.95
79494;SHT31;68951;53.130;18.104;2023-04-07T03:24:27;6.12;71.00
79494;SHT31;68951;53.130;18.104;2023-04-07T03:26:54;6.06;71.03
79494;SHT31;68951;53.130;18.104;2023-04-07T03:29:21;6.05;71.10
79494;SHT31;68951;53.130;18.104;2023-04-07T03:31:48;6.04;71.12
79494;SHT31;68951;53.130;18.104;2023-04-07T03:34:15;6.05;71.20
79494;SHT31;68951;53.130;18.104;2023-04-07T03:36:41;6.10;71.26
79494;SHT31;68951;53.130;18.104;2023-04-07T03:39:08;6.15;71.31
79494;SHT31;68951;53.130;18.104;2023-04-07T03:41:35;6.18;71.37
79494;SHT31;68951;53.130;18.104;2023-04-07T03:44:02;6.19;71.41
79494;SHT31;68951;53.130;18.104;2023-04-07T03:46:29;6.19;71.44
79494;SHT31;68951;53.130;18.104;2023-04-07T03:48:56;6.15;71.50
79494;SHT31;68951;53.130;18.104;2023-04-07T03:51:23;6.11;71.59
79494;SHT31;68951;53.130;18.104;2023-04-07T03:53:50;6.12;71.64
79494;SHT31;68951;53.130;18.104;2023-04-07T03:56:17;6.10;71.72
79494;SHT31;68951;53.130;18.104;2023-04-07T03:58:43;6.11;71.80
79494;SHT31;68951;53.130;18.104;2023-04-07T04:01:11;6.17;71.86
79494;SHT31;68951;53.130;18.104;2023-04-07T04:03:38;6.19;71.90
79494;SHT31;68951;53.130;18.104;2023-04-07T04:06:05;6.21;71.98
79494;SHT31;68951;53.130;18.104;2023-04-07T04:08:32;6.24;72.00
79494;SHT31;68951;53.130;18.104;2023-04-07T04:10:59;6.24;72.06
79494;SHT31;68951;53.130;18.104;2023-04-07T04:13:27;6.21;72.10
79494;SHT31;68951;53.130;18.104;2023-04-07T04:15:53;6.18;72.15
79494;SHT31;68951;53.130;18.104;2023-04-07T04:18:20;6.15;72.20
79494;SHT31;68951;53.130;18.104;2023-04-07T04:20:47;6.13;72.27
79494;SHT31;68951;53.130;18.104;2023-04-07T04:23:14;6.18;72.32
79494;SHT31;68951;53.130;18.104;2023-04-07T04:25:41;6.21;72.39
79494;SHT31;68951;53.130;18.104;2023-04-07T04:28:08;6.23;72.46
79494;SHT31;68951;53.130;18.104;2023-04-07T04:30:35;6.23;72.50
79494;SHT31;68951;53.130;18.104;2023-04-07T04:33:02;6.22;72.51
79494;SHT31;68951;53.130;18.104;2023-04-07T04:35:29;6.24;72.59
79494;SHT31;68951;53.130;18.104;2023-04-07T04:37:55;6.22;72.60
79494;SHT31;68951;53.130;18.104;2023-04-07T04:40:22;6.21;72.68
79494;SHT31;68951;53.130;18.104;2023-04-07T04:42:49;6.20;72.71
79494;SHT31;68951;53.130;18.104;2023-04-07T04:45:16;6.23;72.79
79494;SHT31;68951;53.130;18.104;2023-04-07T04:47:43;6.25;72.81
79494;SHT31;68951;53.130;18.104;2023-04-07T04:50:09;6.28;72.87
79494;SHT31;68951;53.130;18.104;2023-04-07T04:52:36;6.29;72.90
79494;SHT31;68951;53.130;18.104;2023-04-07T04:55:04;6.32;72.91
79494;SHT31;68951;53.130;18.104;2023-04-07T04:57:32;6.35;72.96
79494;SHT31;68951;53.130;18.104;2023-04-07T05:00:01;6.41;73.00
79494;SHT31;68951;53.130;18.104;2023-04-07T05:02:29;6.43;73.00
79494;SHT31;68951;53.130;18.104;2023-04-07T05:04:56;6.38;73.00
79494;SHT31;68951;53.130;18.104;2023-04-07T05:07:23;6.38;73.04
79494;SHT31;68951;53.130;18.104;2023-04-07T05:09:50;6.42;73.09
79494;SHT31;68951;53.130;18.104;2023-04-07T05:12:17;6.49;73.10
79494;SHT31;68951;53.130;18.104;2023-04-07T05:14:43;6.57;73.10
79494;SHT31;68951;53.130;18.104;2023-04-07T05:17:10;6.61;73.10
79494;SHT31;68951;53.130;18.104;2023-04-07T05:19:37;6.62;73.11
79494;SHT31;68951;53.130;18.104;2023-04-07T05:22:04;6.62;73.12
79494;SHT31;68951;53.130;18.104;2023-04-07T05:24:31;6.60;73.18
79494;SHT31;68951;53.130;18.104;2023-04-07T05:26:58;6.58;73.20
79494;SHT31;68951;53.130;18.104;2023-04-07T05:29:25;6.52;73.25
79494;SHT31;68951;53.130;18.104;2023-04-07T05:31:51;6.55;73.30
79494;SHT31;68951;53.130;18.104;2023-04-07T05:34:18;6.63;73.30
79494;SHT31;68951;53.130;18.104;2023-04-07T05:36:45;6.69;73.36
79494;SHT31;68951;53.130;18.104;2023-04-07T05:39:12;6.67;73.40
79494;SHT31;68951;53.130;18.104;2023-04-07T05:41:39;6.64;73.40
79494;SHT31;68951;53.130;18.104;2023-04-07T05:44:06;6.63;73.47
79494;SHT31;68951;53.130;18.104;2023-04-07T05:46:33;6.62;73.50
79494;SHT31;68951;53.130;18.104;2023-04-07T05:49:00;6.63;73.52
79494;SHT31;68951;53.130;18.104;2023-04-07T05:51:27;6.64;73.59
79494;SHT31;68951;53.130;18.104;2023-04-07T05:53:53;6.63;73.60
79494;SHT31;68951;53.130;18.104;2023-04-07T05:56:20;6.67;73.64
79494;SHT31;68951;53.130;18.104;2023-04-07T05:58:47;6.69;73.70
79494;SHT31;68951;53.130;18.104;2023-04-07T06:01:14;6.72;73.72
79494;SHT31;68951;53.130;18.104;2023-04-07T06:03:41;6.72;73.78
79494;SHT31;68951;53.130;18.104;2023-04-07T06:06:08;6.76;73.80
79494;SHT31;68951;53.130;18.104;2023-04-07T06:08:35;6.77;73.80
79494;SHT31;68951;53.130;18.104;2023-04-07T06:11:02;6.77;73.88
79494;SHT31;68951;53.130;18.104;2023-04-07T06:13:29;6.74;73.90
79494;SHT31;68951;53.130;18.104;2023-04-07T06:15:56;6.78;73.95
79494;SHT31;68951;53.130;18.104;2023-04-07T06:18:23;6.85;74.00
79494;SHT31;68951;53.130;18.104;2023-04-07T06:20:50;6.93;74.00
79494;SHT31;68951;53.130;18.104;2023-04-07T06:23:17;6.98;74.00
79494;SHT31;68951;53.130;18.104;2023-04-07T06:25:44;7.01;74.00
79494;SHT31;68951;53.130;18.104;2023-04-07T06:28:11;7.03;74.00
79494;SHT31;68951;53.130;18.104;2023-04-07T06:30:38;7.04;74.00
79494;SHT31;68951;53.130;18.104;2023-04-07T06:33:06;7.06;74.00
79494;SHT31;68951;53.130;18.104;2023-04-07T06:35:33;7.08;74.00
79494;SHT31;68951;53.130;18.104;2023-04-07T06:38:00;7.08;74.00
79494;SHT31;68951;53.130;18.104;2023-04-07T06:40:27;7.14;74.00
79494;SHT31;68951;53.130;18.104;2023-04-07T06:42:54;7.16;74.00
79494;SHT31;68951;53.130;18.104;2023-04-07T06:45:21;7.20;74.01
79494;SHT31;68951;53.130;18.104;2023-04-07T06:47:48;7.20;74.00
79494;SHT31;68951;53.130;18.104;2023-04-07T06:50:15;7.20;74.00
79494;SHT31;68951;53.130;18.104;2023-04-07T06:52:46;7.23;74.00
79494;SHT31;68951;53.130;18.104;2023-04-07T06:55:13;7.24;74.01
79494;SHT31;68951;53.130;18.104;2023-04-07T06:57:40;7.21;74.04
79494;SHT31;68951;53.130;18.104;2023-04-07T07:00:07;7.20;74.08
79494;SHT31;68951;53.130;18.104;2023-04-07T07:02:35;7.25;74.10
79494;SHT31;68951;53.130;18.104;2023-04-07T07:05:02;7.34;74.10
79494;SHT31;68951;53.130;18.104;2023-04-07T07:07:30;7.37;74.10
79494;SHT31;68951;53.130;18.104;2023-04-07T07:09:57;7.35;74.10
79494;SHT31;68951;53.130;18.104;2023-04-07T07:12:23;7.37;74.10
79494;SHT31;68951;53.130;18.104;2023-04-07T07:14:51;7.37;74.11
79494;SHT31;68951;53.130;18.104;2023-04-07T07:17:17;7.34;74.16
79494;SHT31;68951;53.130;18.104;2023-04-07T07:19:44;7.36;74.20
79494;SHT31;68951;53.130;18.104;2023-04-07T07:22:11;7.42;74.20
79494;SHT31;68951;53.130;18.104;2023-04-07T07:24:38;7.46;74.24
79494;SHT31;68951;53.130;18.104;2023-04-07T07:27:05;7.51;74.29
79494;SHT31;68951;53.130;18.104;2023-04-07T07:29:32;7.53;74.30
79494;SHT31;68951;53.130;18.104;2023-04-07T07:31:58;7.57;74.30
79494;SHT31;68951;53.130;18.104;2023-04-07T07:34:25;7.55;74.30
79494;SHT31;68951;53.130;18.104;2023-04-07T07:36:52;7.50;74.32
79494;SHT31;68951;53.130;18.104;2023-04-07T07:39:19;7.44;74.38
79494;SHT31;68951;53.130;18.104;2023-04-07T07:41:46;7.44;74.41
79494;SHT31;68951;53.130;18.104;2023-04-07T07:44:13;7.47;74.47
79494;SHT31;68951;53.130;18.104;2023-04-07T07:46:40;7.51;74.50
79494;SHT31;68951;53.130;18.104;2023-04-07T07:49:06;7.52;74.51
79494;SHT31;68951;53.130;18.104;2023-04-07T07:51:33;7.54;74.58
79494;SHT31;68951;53.130;18.104;2023-04-07T07:54:00;7.56;74.58
79494;SHT31;68951;53.130;18.104;2023-04-07T07:56:27;7.57;74.60
79494;SHT31;68951;53.130;18.104;2023-04-07T07:58:54;7.57;74.60
79494;SHT31;68951;53.130;18.104;2023-04-07T08:01:21;7.59;74.68
79494;SHT31;68951;53.130;18.104;2023-04-07T08:03:48;7.66;74.69
79494;SHT31;68951;53.130;18.104;2023-04-07T08:06:15;7.75;74.70
79494;SHT31;68951;53.130;18.104;2023-04-07T08:08:41;7.83;74.70
79494;SHT31;68951;53.130;18.104;2023-04-07T08:11:08;7.90;74.70
79494;SHT31;68951;53.130;18.104;2023-04-07T08:13:35;7.96;74.70
79494;SHT31;68951;53.130;18.104;2023-04-07T08:16:02;7.99;74.70
79494;SHT31;68951;53.130;18.104;2023-04-07T08:18:29;8.00;74.70
79494;SHT31;68951;53.130;18.104;2023-04-07T08:20:56;8.02;74.69
79494;SHT31;68951;53.130;18.104;2023-04-07T08:23:22;8.06;74.69
79494;SHT31;68951;53.130;18.104;2023-04-07T08:25:49;8.12;74.62
79494;SHT31;68951;53.130;18.104;2023-04-07T08:28:16;8.21;74.66
79494;SHT31;68951;53.130;18.104;2023-04-07T08:30:43;8.28;74.60
79494;SHT31;68951;53.130;18.104;2023-04-07T08:33:10;8.28;74.59
79494;SHT31;68951;53.130;18.104;2023-04-07T08:35:36;8.33;74.59
79494;SHT31;68951;53.130;18.104;2023-04-07T08:38:03;8.39;74.52
79494;SHT31;68951;53.130;18.104;2023-04-07T08:40:31;8.49;74.53
79494;SHT31;68951;53.130;18.104;2023-04-07T08:42:59;8.56;74.50
79494;SHT31;68951;53.130;18.104;2023-04-07T08:45:27;8.64;74.50
79494;SHT31;68951;53.130;18.104;2023-04-07T08:47:56;8.79;74.48
79494;SHT31;68951;53.130;18.104;2023-04-07T08:50:30;8.87;74.40
79494;SHT31;68951;53.130;18.104;2023-04-07T08:52:58;8.98;74.33
79494;SHT31;68951;53.130;18.104;2023-04-07T08:55:28;9.07;74.29
79494;SHT31;68951;53.130;18.104;2023-04-07T08:57:55;9.13;74.21
79494;SHT31;68951;53.130;18.104;2023-04-07T09:00:23;9.14;74.11
79494;SHT31;68951;53.130;18.104;2023-04-07T09:02:50;9.18;74.10
79494;SHT31;68951;53.130;18.104;2023-04-07T09:05:17;9.18;74.03
79494;SHT31;68951;53.130;18.104;2023-04-07T09:07:46;9.14;73.99
79494;SHT31;68951;53.130;18.104;2023-04-07T09:10:13;9.16;73.90
79494;SHT31;68951;53.130;18.104;2023-04-07T09:12:42;9.21;73.90
79494;SHT31;68951;53.130;18.104;2023-04-07T09:15:09;9.22;73.80
79494;SHT31;68951;53.130;18.104;2023-04-07T09:17:36;9.24;73.72
79494;SHT31;68951;53.130;18.104;2023-04-07T09:20:03;9.24;73.70
79494;SHT31;68951;53.130;18.104;2023-04-07T09:22:35;9.30;73.62
79494;SHT31;68951;53.130;18.104;2023-04-07T09:25:11;9.34;73.59
79494;SHT31;68951;53.130;18.104;2023-04-07T09:28:02;9.42;73.51
79494;SHT31;68951;53.130;18.104;2023-04-07T09:30:31;9.55;73.50
79494;SHT31;68951;53.130;18.104;2023-04-07T09:32:59;9.64;73.41
79494;SHT31;68951;53.130;18.104;2023-04-07T09:35:27;9.68;73.31
79494;SHT31;68951;53.130;18.104;2023-04-07T09:38:01;9.78;73.30
79494;SHT31;68951;53.130;18.104;2023-04-07T09:40:33;9.87;73.21
79494;SHT31;68951;53.130;18.104;2023-04-07T09:43:03;9.93;73.12
79494;SHT31;68951;53.130;18.104;2023-04-07T09:45:31;9.92;73.03
79494;SHT31;68951;53.130;18.104;2023-04-07T09:48:04;9.92;72.99
79494;SHT31;68951;53.130;18.104;2023-04-07T09:50:45;9.98;72.95
79494;SHT31;68951;53.130;18.104;2023-04-07T09:53:17;10.00;72.94
79494;SHT31;68951;53.130;18.104;2023-04-07T09:55:48;10.06;72.97
79494;SHT31;68951;53.130;18.104;2023-04-07T09:58:16;10.14;73.00
79494;SHT31;68951;53.130;18.104;2023-04-07T10:00:43;10.17;72.98
79494;SHT31;68951;53.130;18.104;2023-04-07T10:03:12;10.13;72.91
79494;SHT31;68951;53.130;18.104;2023-04-07T10:05:40;10.17;72.90
79494;SHT31;68951;53.130;18.104;2023-04-07T10:08:09;10.32;72.90
79494;SHT31;68951;53.130;18.104;2023-04-07T10:10:37;10.41;72.90
79494;SHT31;68951;53.130;18.104;2023-04-07T10:13:08;10.50;72.83
79494;SHT31;68951;53.130;18.104;2023-04-07T10:15:35;10.55;72.74
79494;SHT31;68951;53.130;18.104;2023-04-07T10:18:03;10.57;72.71
79494;SHT31;68951;53.130;18.104;2023-04-07T10:20:34;10.59;72.69
79494;SHT31;68951;53.130;18.104;2023-04-07T10:23:12;10.63;72.61
79494;SHT31;68951;53.130;18.104;2023-04-07T10:25:59;10.76;72.58
79494;SHT31;68951;53.130;18.104;2023-04-07T10:28:27;10.87;72.50
79494;SHT31;68951;53.130;18.104;2023-04-07T10:30:57;10.94;72.45
79494;SHT31;68951;53.130;18.104;2023-04-07T10:33:43;10.98;72.37
79494;SHT31;68951;53.130;18.104;2023-04-07T10:36:18;10.94;72.23
79494;SHT31;68951;53.130;18.104;2023-04-07T10:44:00;11.11;72.10
79494;SHT31;68951;53.130;18.104;2023-04-07T10:49:17;11.21;72.08
79494;SHT31;68951;53.130;18.104;2023-04-07T10:51:44;11.21;71.93
79494;SHT31;68951;53.130;18.104;2023-04-07T10:54:40;11.14;71.81
79494;SHT31;68951;53.130;18.104;2023-04-07T10:57:09;11.12;71.76
79494;SHT31;68951;53.130;18.104;2023-04-07T10:59:40;11.14;71.71
79494;SHT31;68951;53.130;18.104;2023-04-07T11:02:31;11.11;71.62
79494;SHT31;68951;53.130;18.104;2023-04-07T11:04:59;11.05;71.54
79494;SHT31;68951;53.130;18.104;2023-04-07T11:07:44;11.04;71.50
79494;SHT31;68951;53.130;18.104;2023-04-07T11:10:15;11.09;71.50
79494;SHT31;68951;53.130;18.104;2023-04-07T11:12:56;11.17;71.50
79494;SHT31;68951;53.130;18.104;2023-04-07T11:15:34;11.21;71.45
79494;SHT31;68951;53.130;18.104;2023-04-07T11:18:09;11.34;71.33
79494;SHT31;68951;53.130;18.104;2023-04-07T11:23:20;11.55;71.18
79494;SHT31;68951;53.130;18.104;2023-04-07T11:25:49;11.52;71.07
79494;SHT31;68951;53.130;18.104;2023-04-07T11:28:28;11.47;71.02
79494;SHT31;68951;53.130;18.104;2023-04-07T11:30:56;11.45;71.00
79494;SHT31;68951;53.130;18.104;2023-04-07T11:33:30;11.42;71.00
79494;SHT31;68951;53.130;18.104;2023-04-07T11:35:58;11.43;71.00
79494;SHT31;68951;53.130;18.104;2023-04-07T11:38:29;11.44;70.98
79494;SHT31;68951;53.130;18.104;2023-04-07T11:41:09;11.58;70.91
79494;SHT31;68951;53.130;18.104;2023-04-07T11:43:39;11.70;70.90
79494;SHT31;68951;53.130;18.104;2023-04-07T11:46:11;11.89;70.82
79494;SHT31;68951;53.130;18.104;2023-04-07T11:49:08;12.02;70.69
79494;SHT31;68951;53.130;18.104;2023-04-07T11:51:41;12.15;70.55
79494;SHT31;68951;53.130;18.104;2023-04-07T11:54:10;12.24;70.40
79494;SHT31;68951;53.130;18.104;2023-04-07T11:56:40;12.27;70.29
79494;SHT31;68951;53.130;18.104;2023-04-07T11:59:22;12.22;70.21
79494;SHT31;68951;53.130;18.104;2023-04-07T12:01:51;12.27;70.09
79494;SHT31;68951;53.130;18.104;2023-04-07T12:04:18;12.40;69.97
79494;SHT31;68951;53.130;18.104;2023-04-07T12:06:46;12.48;69.82
79494;SHT31;68951;53.130;18.104;2023-04-07T12:09:24;12.52;69.67
79494;SHT31;68951;53.130;18.104;2023-04-07T12:12:01;12.49;69.54
79494;SHT31;68951;53.130;18.104;2023-04-07T12:14:33;12.46;69.50
79494;SHT31;68951;53.130;18.104;2023-04-07T12:17:01;12.46;69.37
79494;SHT31;68951;53.130;18.104;2023-04-07T12:19:29;12.44;69.36
79494;SHT31;68951;53.130;18.104;2023-04-07T12:22:01;12.53;69.36
79494;SHT31;68951;53.130;18.104;2023-04-07T12:24:27;12.69;69.26
79494;SHT31;68951;53.130;18.104;2023-04-07T12:26:54;12.86;69.17
79494;SHT31;68951;53.130;18.104;2023-04-07T12:29:21;12.92;69.04
79494;SHT31;68951;53.130;18.104;2023-04-07T12:31:48;13.00;68.94
79494;SHT31;68951;53.130;18.104;2023-04-07T12:34:15;13.12;68.81
79494;SHT31;68951;53.130;18.104;2023-04-07T12:36:42;13.27;68.70
79494;SHT31;68951;53.130;18.104;2023-04-07T12:39:09;13.42;68.60
79494;SHT31;68951;53.130;18.104;2023-04-07T12:41:37;13.46;68.48
79494;SHT31;68951;53.130;18.104;2023-04-07T12:44:05;13.41;68.31
79494;SHT31;68951;53.130;18.104;2023-04-07T12:46:32;13.38;68.23
79494;SHT31;68951;53.130;18.104;2023-04-07T12:48:59;13.44;68.20
79494;SHT31;68951;53.130;18.104;2023-04-07T12:51:26;13.50;68.17
79494;SHT31;68951;53.130;18.104;2023-04-07T12:53:53;13.45;68.00
79494;SHT31;68951;53.130;18.104;2023-04-07T12:56:20;13.33;67.82
79494;SHT31;68951;53.130;18.104;2023-04-07T12:58:48;13.26;67.80
79494;SHT31;68951;53.130;18.104;2023-04-07T13:01:15;13.23;67.75
79494;SHT31;68951;53.130;18.104;2023-04-07T13:03:41;13.30;67.71
79494;SHT31;68951;53.130;18.104;2023-04-07T13:06:08;13.52;67.67
79494;SHT31;68951;53.130;18.104;2023-04-07T13:08:36;13.76;67.53
79494;SHT31;68951;53.130;18.104;2023-04-07T13:11:03;13.88;67.32
79494;SHT31;68951;53.130;18.104;2023-04-07T13:13:30;13.89;67.13
79494;SHT31;68951;53.130;18.104;2023-04-07T13:15:57;13.93;67.01
79494;SHT31;68951;53.130;18.104;2023-04-07T13:18:24;14.03;66.89
79494;SHT31;68951;53.130;18.104;2023-04-07T13:20:51;14.13;66.67
79494;SHT31;68951;53.130;18.104;2023-04-07T13:23:18;14.40;66.46
79494;SHT31;68951;53.130;18.104;2023-04-07T13:25:45;14.54;66.14
79494;SHT31;68951;53.130;18.104;2023-04-07T13:28:12;14.58;65.82
79494;SHT31;68951;53.130;18.104;2023-04-07T13:30:39;14.69;65.63
79494;SHT31;68951;53.130;18.104;2023-04-07T13:33:06;14.59;65.37
79494;SHT31;68951;53.130;18.104;2023-04-07T13:35:33;14.45;65.14
79494;SHT31;68951;53.130;18.104;2023-04-07T13:38:01;14.41;65.10
79494;SHT31;68951;53.130;18.104;2023-04-07T13:40:29;14.34;64.89
79494;SHT31;68951;53.130;18.104;2023-04-07T13:42:56;14.30;64.68
79494;SHT31;68951;53.130;18.104;2023-04-07T13:45:23;14.25;64.43
79494;SHT31;68951;53.130;18.104;2023-04-07T13:47:50;14.40;64.31
79494;SHT31;68951;53.130;18.104;2023-04-07T13:50:17;14.39;64.17
79494;SHT31;68951;53.130;18.104;2023-04-07T13:52:44;14.24;64.06
79494;SHT31;68951;53.130;18.104;2023-04-07T13:55:11;14.12;64.00
79494;SHT31;68951;53.130;18.104;2023-04-07T13:57:38;14.06;64.05
79494;SHT31;68951;53.130;18.104;2023-04-07T14:00:05;14.04;64.06
79494;SHT31;68951;53.130;18.104;2023-04-07T14:02:33;14.03;64.00
79494;SHT31;68951;53.130;18.104;2023-04-07T14:05:00;13.95;63.92
79494;SHT31;68951;53.130;18.104;2023-04-07T14:07:27;13.84;63.86
79494;SHT31;68951;53.130;18.104;2023-04-07T14:09:54;13.72;63.81
79494;SHT31;68951;53.130;18.104;2023-04-07T14:12:21;13.56;63.83
79494;SHT31;68951;53.130;18.104;2023-04-07T14:14:48;13.51;63.93
79494;SHT31;68951;53.130;18.104;2023-04-07T14:17:17;13.47;63.99
79494;SHT31;68951;53.130;18.104;2023-04-07T14:19:44;13.45;64.08
79494;SHT31;68951;53.130;18.104;2023-04-07T14:22:12;13.56;64.19
79494;SHT31;68951;53.130;18.104;2023-04-07T14:24:40;13.60;64.16
79494;SHT31;68951;53.130;18.104;2023-04-07T14:27:07;13.61;64.10
79494;SHT31;68951;53.130;18.104;2023-04-07T14:29:34;13.64;64.10
79494;SHT31;68951;53.130;18.104;2023-04-07T14:32:01;13.66;64.07
79494;SHT31;68951;53.130;18.104;2023-04-07T14:34:28;13.62;64.03
79494;SHT31;68951;53.130;18.104;2023-04-07T14:36:55;13.52;64.00
79494;SHT31;68951;53.130;18.104;2023-04-07T14:39:24;13.39;64.00
79494;SHT31;68951;53.130;18.104;2023-04-07T14:41:51;13.28;64.02
79494;SHT31;68951;53.130;18.104;2023-04-07T14:44:19;13.20;64.10
79494;SHT31;68951;53.130;18.104;2023-04-07T14:46:46;13.18;64.19
79494;SHT31;68951;53.130;18.104;2023-04-07T14:49:13;13.13;64.19
79494;SHT31;68951;53.130;18.104;2023-04-07T14:51:40;13.09;64.27
79494;SHT31;68951;53.130;18.104;2023-04-07T14:54:08;13.06;64.35
79494;SHT31;68951;53.130;18.104;2023-04-07T14:56:34;13.08;64.40
79494;SHT31;68951;53.130;18.104;2023-04-07T14:59:01;13.13;64.43
79494;SHT31;68951;53.130;18.104;2023-04-07T15:01:28;13.18;64.47
79494;SHT31;68951;53.130;18.104;2023-04-07T15:03:55;13.23;64.42
79494;SHT31;68951;53.130;18.104;2023-04-07T15:06:23;13.36;64.40
79494;SHT31;68951;53.130;18.104;2023-04-07T15:08:51;13.47;64.40
79494;SHT31;68951;53.130;18.104;2023-04-07T15:11:18;13.50;64.29
79494;SHT31;68951;53.130;18.104;2023-04-07T15:13:46;13.48;64.23
79494;SHT31;68951;53.130;18.104;2023-04-07T15:16:14;13.42;64.20
79494;SHT31;68951;53.130;18.104;2023-04-07T15:18:43;13.39;64.20
79494;SHT31;68951;53.130;18.104;2023-04-07T15:21:12;13.36;64.20
79494;SHT31;68951;53.130;18.104;2023-04-07T15:23:40;13.29;64.20
79494;SHT31;68951;53.130;18.104;2023-04-07T15:26:08;13.22;64.25
79494;SHT31;68951;53.130;18.104;2023-04-07T15:28:36;13.14;64.31
79494;SHT31;68951;53.130;18.104;2023-04-07T15:31:04;13.10;64.37
79494;SHT31;68951;53.130;18.104;2023-04-07T15:33:35;12.98;64.40
79494;SHT31;68951;53.130;18.104;2023-04-07T15:36:03;12.89;64.48
79494;SHT31;68951;53.130;18.104;2023-04-07T15:38:32;12.86;64.56
79494;SHT31;68951;53.130;18.104;2023-04-07T15:40:58;12.87;64.65
79494;SHT31;68951;53.130;18.104;2023-04-07T15:43:25;12.86;64.76
79494;SHT31;68951;53.130;18.104;2023-04-07T15:45:53;12.83;64.80
79494;SHT31;68951;53.130;18.104;2023-04-07T15:48:21;12.81;64.89
79494;SHT31;68951;53.130;18.104;2023-04-07T15:50:48;12.83;64.97
79494;SHT31;68951;53.130;18.104;2023-04-07T15:53:14;12.82;64.99